createdAt,value
2022-11-25T00:01:21.008Z,4.30
2022-11-25T00:03:48.567Z,4.17
2022-11-25T00:06:26.011Z,4.18
2022-11-25T00:08:56.400Z,4.10
2022-11-25T00:11:23.436Z,4.13
2022-11-25T00:13:51.639Z,4.88
2022-11-25T00:16:20.758Z,4.20
2022-11-25T00:18:49.728Z,4.25
2022-11-25T00:21:21.884Z,4.28
2022-11-25T00:23:53.623Z,4.10
2022-11-25T00:26:21.239Z,4.00
2022-11-25T00:28:48.621Z,4.00
2022-11-25T00:31:31.076Z,4.40
2022-11-25T00:33:58.005Z,4.07
2022-11-25T00:36:31.123Z,4.32
2022-11-25T00:39:01.049Z,4.22
2022-11-25T00:41:28.925Z,4.87
2022-11-25T00:43:55.592Z,5.43
2022-11-25T00:46:22.454Z,4.68
2022-11-25T00:48:49.138Z,4.88
2022-11-25T00:51:15.893Z,5.60
2022-11-25T00:53:42.563Z,5.17
2022-11-25T00:56:10.415Z,5.82
2022-11-25T00:58:39.164Z,5.03
2022-11-25T01:01:09.167Z,4.93
2022-11-25T01:03:36.211Z,5.75
2022-11-25T01:06:14.219Z,5.47
2022-11-25T01:08:41.334Z,5.50
2022-11-25T01:11:11.691Z,5.43
2022-11-25T01:13:38.526Z,5.63
2022-11-25T01:16:07.071Z,5.60
2022-11-25T01:18:37.716Z,6.20
2022-11-25T01:21:18.138Z,5.40
2022-11-25T01:23:48.680Z,5.35
2022-11-25T01:26:19.079Z,5.38
2022-11-25T01:28:46.309Z,5.50
2022-11-25T01:31:18.834Z,5.20
2022-11-25T01:33:54.159Z,5.05
2022-11-25T01:36:24.306Z,4.75
2022-11-25T01:38:55.453Z,4.25
2022-11-25T01:41:23.935Z,4.10
2022-11-25T01:44:13.166Z,3.20
2022-11-25T01:46:51.311Z,2.95
2022-11-25T01:49:27.679Z,2.70
2022-11-25T01:52:09.612Z,2.97
2022-11-25T01:54:48.949Z,3.20
2022-11-25T01:57:41.484Z,2.60
2022-11-25T02:00:10.002Z,2.50
2022-11-25T02:02:36.762Z,2.40
2022-11-25T02:05:08.086Z,2.13
2022-11-25T02:07:41.635Z,2.50
2022-11-25T02:10:14.292Z,1.90
2022-11-25T02:12:43.221Z,2.20
2022-11-25T02:15:10.495Z,2.50
2022-11-25T02:17:37.109Z,2.35
2022-11-25T02:20:13.044Z,3.08
2022-11-25T02:23:18.421Z,2.40
2022-11-25T02:25:46.791Z,2.50
2022-11-25T02:28:15.179Z,3.10
2022-11-25T02:30:42.669Z,2.55
2022-11-25T02:33:09.513Z,2.92
2022-11-25T02:35:41.898Z,3.10
2022-11-25T02:38:16.392Z,3.25
2022-11-25T02:41:03.041Z,3.70
2022-11-25T02:43:29.749Z,3.70
2022-11-25T02:46:02.837Z,3.85
2022-11-25T02:49:00.830Z,4.47
2022-11-25T02:51:21.706Z,4.60
2022-11-25T02:53:49.158Z,4.38
2022-11-25T02:56:19.292Z,4.07
2022-11-25T02:58:45.664Z,4.00
2022-11-25T03:01:12.183Z,3.40
2022-11-25T03:03:38.927Z,3.30
2022-11-25T03:06:05.561Z,3.10
2022-11-25T03:08:32.071Z,2.88
2022-11-25T03:10:58.548Z,2.45
2022-11-25T03:13:24.983Z,2.13
2022-11-25T03:15:51.527Z,2.50
2022-11-25T03:18:18.210Z,2.00
2022-11-25T03:20:44.951Z,2.20
2022-11-25T03:23:11.548Z,1.90
2022-11-25T03:25:38.211Z,1.90
2022-11-25T03:28:05.086Z,1.90
2022-11-25T03:30:31.686Z,1.63
2022-11-25T03:32:58.105Z,1.80
2022-11-25T03:35:24.565Z,1.98
2022-11-25T03:37:51.011Z,1.80
2022-11-25T03:40:17.755Z,1.90
2022-11-25T03:42:44.477Z,1.70
2022-11-25T03:45:12.892Z,2.17
2022-11-25T03:47:41.164Z,1.58
2022-11-25T03:50:08.903Z,1.50
2022-11-25T03:52:35.542Z,1.60
2022-11-25T03:55:02.033Z,1.60
2022-11-25T03:57:28.455Z,1.60
2022-11-25T03:59:54.928Z,1.30
2022-11-25T04:02:21.399Z,1.30
2022-11-25T04:04:47.932Z,1.42
2022-11-25T04:07:14.453Z,1.33
2022-11-25T04:09:40.886Z,1.40
2022-11-25T04:12:07.400Z,1.58
2022-11-25T04:14:34.137Z,1.20
2022-11-25T04:17:00.982Z,1.38
2022-11-25T04:19:27.519Z,1.30
2022-11-25T04:21:53.978Z,1.30
2022-11-25T04:24:21.415Z,1.20
2022-11-25T04:26:47.822Z,1.33
2022-11-25T04:29:14.313Z,1.20
2022-11-25T04:31:40.829Z,1.30
2022-11-25T04:34:07.318Z,1.40
2022-11-25T04:36:33.718Z,1.40
2022-11-25T04:39:00.117Z,1.60
2022-11-25T04:41:26.530Z,1.50
2022-11-25T04:43:52.926Z,1.58
2022-11-25T04:46:24.977Z,1.55
2022-11-25T04:48:51.873Z,2.00
2022-11-25T04:51:18.320Z,1.80
2022-11-25T04:53:44.753Z,2.30
2022-11-25T04:56:17.147Z,2.03
2022-11-25T04:58:43.540Z,1.80
2022-11-25T05:01:10.014Z,2.30
2022-11-25T05:03:36.541Z,2.30
2022-11-25T05:06:07.563Z,2.10
2022-11-25T05:08:34.468Z,2.17
2022-11-25T05:11:00.929Z,2.30
2022-11-25T05:13:28.012Z,2.40
2022-11-25T05:15:54.455Z,2.70
2022-11-25T05:18:20.826Z,2.80
2022-11-25T05:20:47.237Z,2.78
2022-11-25T05:23:13.668Z,2.90
2022-11-25T05:25:40.102Z,2.80
2022-11-25T05:28:06.539Z,3.23
2022-11-25T05:30:33.122Z,3.25
2022-11-25T05:32:59.594Z,3.70
2022-11-25T05:35:26.077Z,3.60
2022-11-25T05:37:52.544Z,3.72
2022-11-25T05:40:19.173Z,3.60
2022-11-25T05:42:45.586Z,3.80
2022-11-25T05:45:12.047Z,3.40
2022-11-25T05:47:38.452Z,3.70
2022-11-25T05:50:05.483Z,4.00
2022-11-25T05:52:32.152Z,3.80
2022-11-25T05:54:58.540Z,3.80
2022-11-25T05:57:24.927Z,4.10
2022-11-25T05:59:51.381Z,4.20
2022-11-25T06:02:17.908Z,4.53
2022-11-25T06:04:44.395Z,4.40
2022-11-25T06:07:10.860Z,4.63
2022-11-25T06:09:37.315Z,4.22
2022-11-25T06:12:04.104Z,4.60
2022-11-25T06:14:30.592Z,4.85
2022-11-25T06:16:57.069Z,4.87
2022-11-25T06:19:23.965Z,4.95
2022-11-25T06:21:50.384Z,4.80
2022-11-25T06:24:16.777Z,4.75
2022-11-25T06:26:43.221Z,4.85
2022-11-25T06:29:09.690Z,5.63
2022-11-25T06:31:36.215Z,4.72
2022-11-25T06:34:02.670Z,4.95
2022-11-25T06:36:29.110Z,5.28
2022-11-25T06:38:55.516Z,5.00
2022-11-25T06:41:22.819Z,4.90
2022-11-25T06:43:49.312Z,5.15
2022-11-25T06:46:23.079Z,5.20
2022-11-25T06:48:51.208Z,5.60
2022-11-25T06:51:17.748Z,5.22
2022-11-25T06:53:44.834Z,5.43
2022-11-25T06:56:14.085Z,5.30
2022-11-25T06:58:41.924Z,5.60
2022-11-25T07:01:14.053Z,12.77
2022-11-25T07:03:41.563Z,6.30
2022-11-25T07:06:08.760Z,5.70
2022-11-25T07:08:35.714Z,5.75
2022-11-25T07:11:04.799Z,5.57
2022-11-25T07:13:31.266Z,5.50
2022-11-25T07:16:00.938Z,5.70
2022-11-25T07:18:30.413Z,6.13
2022-11-25T07:21:02.145Z,5.90
2022-11-25T07:23:28.680Z,6.30
2022-11-25T07:25:55.527Z,5.97
2022-11-25T07:28:22.080Z,5.88
2022-11-25T07:31:22.845Z,5.23
2022-11-25T07:33:35.797Z,5.18
2022-11-25T07:36:07.677Z,4.43
2022-11-25T07:38:35.431Z,4.70
2022-11-25T07:41:11.324Z,4.30
2022-11-25T07:43:38.309Z,4.60
2022-11-25T07:46:19.814Z,4.72
2022-11-25T07:48:50.570Z,4.57
2022-11-25T07:51:23.440Z,4.15
2022-11-25T07:53:51.269Z,4.40
2022-11-25T07:56:18.059Z,4.43
2022-11-25T07:58:46.187Z,4.93
2022-11-25T08:01:14.884Z,5.63
2022-11-25T08:03:43.215Z,5.78
2022-11-25T08:06:12.561Z,5.55
2022-11-25T08:08:40.315Z,5.70
2022-11-25T08:11:17.950Z,6.30
2022-11-25T08:13:44.870Z,6.05
2022-11-25T08:16:13.455Z,5.70
2022-11-25T08:18:40.839Z,5.07
2022-11-25T08:21:09.803Z,5.30
2022-11-25T08:23:38.292Z,5.50
2022-11-25T08:26:10.392Z,5.30
2022-11-25T08:28:37.982Z,5.70
2022-11-25T08:31:06.743Z,5.22
2022-11-25T08:33:33.297Z,5.00
2022-11-25T08:36:00.111Z,5.65
2022-11-25T08:38:27.937Z,5.32
2022-11-25T08:40:54.575Z,4.90
2022-11-25T08:43:25.014Z,5.13
2022-11-25T08:45:54.449Z,4.63
2022-11-25T08:48:21.469Z,4.65
2022-11-25T08:50:53.696Z,4.70
2022-11-25T08:53:21.794Z,4.63
2022-11-25T08:55:48.477Z,4.22
2022-11-25T08:58:15.104Z,4.43
2022-11-25T09:00:43.188Z,4.82
2022-11-25T09:03:09.905Z,5.20
2022-11-25T09:05:41.337Z,4.90
2022-11-25T09:08:09.100Z,4.78
2022-11-25T09:10:36.176Z,4.60
2022-11-25T09:13:02.665Z,4.28
2022-11-25T09:15:29.157Z,4.10
2022-11-25T09:17:59.522Z,4.13
2022-11-25T09:20:27.096Z,3.70
2022-11-25T09:22:53.707Z,3.70
2022-11-25T09:25:22.008Z,3.95
2022-11-25T09:27:48.552Z,3.67
2022-11-25T09:30:15.549Z,3.92
2022-11-25T09:32:42.529Z,3.78
2022-11-25T09:35:09.410Z,3.23
2022-11-25T09:37:35.895Z,3.55
2022-11-25T09:40:02.412Z,3.42
2022-11-25T09:43:04.059Z,3.38
2022-11-25T09:45:57.612Z,3.60
2022-11-25T09:48:39.401Z,3.67
2022-11-25T09:51:17.975Z,3.30
2022-11-25T09:53:51.352Z,4.72
2022-11-25T09:56:29.336Z,3.30
2022-11-25T09:59:07.520Z,3.60
2022-11-25T10:01:59.615Z,3.50
2022-11-25T10:04:32.793Z,3.03
2022-11-25T10:07:02.624Z,3.47
2022-11-25T10:09:35.176Z,3.20
2022-11-25T10:12:13.555Z,2.67
2022-11-25T10:14:42.744Z,2.57
2022-11-25T10:17:38.303Z,2.47
2022-11-25T10:20:17.060Z,2.00
2022-11-25T10:22:50.193Z,2.10
2022-11-25T10:25:25.553Z,2.60
2022-11-25T10:28:18.369Z,2.20
2022-11-25T10:30:59.356Z,1.90
2022-11-25T10:33:33.178Z,1.92
2022-11-25T10:36:23.064Z,2.38
2022-11-25T10:39:00.469Z,2.22
2022-11-25T10:41:31.019Z,2.17
2022-11-25T10:43:58.071Z,2.65
2022-11-25T10:46:43.709Z,1.90
2022-11-25T10:49:29.922Z,2.85
2022-11-25T10:51:56.867Z,3.00
2022-11-25T10:54:27.938Z,2.30
2022-11-25T10:57:00.334Z,2.15
2022-11-25T10:59:38.909Z,2.35
2022-11-25T11:02:19.525Z,2.33
2022-11-25T11:04:58.461Z,2.25
2022-11-25T11:07:29.181Z,2.10
2022-11-25T11:10:12.726Z,2.53
2022-11-25T11:13:10.139Z,2.25
2022-11-25T11:15:42.460Z,2.25
2022-11-25T11:18:29.846Z,3.33
2022-11-25T11:20:59.640Z,2.60
2022-11-25T11:23:27.751Z,2.60
2022-11-25T11:25:55.917Z,2.60
2022-11-25T11:28:30.440Z,2.90
2022-11-25T11:31:17.106Z,2.55
2022-11-25T11:33:50.138Z,2.80
2022-11-25T11:36:38.282Z,2.55
2022-11-25T11:39:26.545Z,2.47
2022-11-25T11:42:30.849Z,3.13
2022-11-25T11:45:25.336Z,2.97
2022-11-25T11:48:22.230Z,2.50
2022-11-25T11:51:01.765Z,2.92
2022-11-25T11:53:34.524Z,2.78
2022-11-25T11:56:36.488Z,2.67
2022-11-25T11:59:25.699Z,2.97
2022-11-25T12:02:05.786Z,2.90
2022-11-25T12:04:44.309Z,2.70
2022-11-25T12:07:21.561Z,2.90
2022-11-25T12:10:17.851Z,3.63
2022-11-25T12:13:00.334Z,3.88
2022-11-25T12:15:48.642Z,4.10
2022-11-25T12:18:17.885Z,3.45
2022-11-25T12:21:07.389Z,4.15
2022-11-25T12:23:48.498Z,3.65
2022-11-25T12:26:25.439Z,2.88
2022-11-25T12:28:57.479Z,3.60
2022-11-25T12:31:49.745Z,3.03
2022-11-25T12:34:31.135Z,3.83
2022-11-25T12:37:15.022Z,2.95
2022-11-25T12:40:00.156Z,3.13
2022-11-25T12:42:30.792Z,3.20
2022-11-25T12:45:11.999Z,3.20
2022-11-25T12:47:38.426Z,3.08
2022-11-25T12:50:05.458Z,3.58
2022-11-25T12:52:51.646Z,3.20
2022-11-25T12:55:22.050Z,4.10
2022-11-25T12:58:07.585Z,5.10
2022-11-25T13:00:42.002Z,3.17
2022-11-25T13:03:14.111Z,3.10
2022-11-25T13:05:49.596Z,3.30
2022-11-25T13:08:49.175Z,3.17
2022-11-25T13:11:30.641Z,3.10
2022-11-25T13:14:29.029Z,3.28
2022-11-25T13:16:57.702Z,3.42
2022-11-25T13:19:24.573Z,2.67
2022-11-25T13:22:02.381Z,3.60
2022-11-25T13:24:38.097Z,3.87
2022-11-25T13:27:04.882Z,3.30
2022-11-25T13:29:31.360Z,3.72
2022-11-25T13:32:03.432Z,2.90
2022-11-25T13:34:32.312Z,3.42
2022-11-25T13:37:22.998Z,3.23
2022-11-25T13:39:49.507Z,3.50
2022-11-25T13:42:24.424Z,3.17
2022-11-25T13:44:53.871Z,3.00
2022-11-25T13:47:31.435Z,2.67
2022-11-25T13:50:12.036Z,3.13
2022-11-25T13:52:44.691Z,3.13
2022-11-25T13:55:17.001Z,3.20
2022-11-25T13:57:49.149Z,2.80
2022-11-25T14:00:15.537Z,2.72
2022-11-25T14:02:46.739Z,2.77
2022-11-25T14:05:22.447Z,2.92
2022-11-25T14:08:01.239Z,2.72
2022-11-25T14:10:46.655Z,2.80
2022-11-25T14:13:31.358Z,3.17
2022-11-25T14:16:26.734Z,2.50
2022-11-25T14:19:49.581Z,3.13
2022-11-25T14:22:25.982Z,3.90
2022-11-25T14:25:09.729Z,3.20
2022-11-25T14:27:36.555Z,2.45
2022-11-25T14:30:09.034Z,2.97
2022-11-25T14:33:01.952Z,2.88
2022-11-25T14:35:32.769Z,3.00
2022-11-25T14:38:34.561Z,3.80
2022-11-25T14:41:10.969Z,3.20
2022-11-25T14:43:44.460Z,4.03
2022-11-25T14:46:17.642Z,4.15
2022-11-25T14:48:44.791Z,4.60
2022-11-25T14:51:13.623Z,5.25
2022-11-25T14:53:48.738Z,3.92
2022-11-25T14:56:36.424Z,3.33
2022-11-25T14:59:03.605Z,4.10
2022-11-25T15:01:32.701Z,4.40
2022-11-25T15:04:13.582Z,4.15
2022-11-25T15:06:42.454Z,5.28
2022-11-25T15:09:21.010Z,5.27
2022-11-25T15:11:48.622Z,7.00
2022-11-25T15:14:42.240Z,6.38
2022-11-25T15:17:26.364Z,4.78
2022-11-25T15:19:54.145Z,7.13
2022-11-25T15:22:23.632Z,8.47
2022-11-25T15:24:55.391Z,5.90
2022-11-25T15:27:24.511Z,5.22
2022-11-25T15:29:52.068Z,4.43
2022-11-25T15:32:30.807Z,5.03
2022-11-25T15:35:00.829Z,6.07
2022-11-25T15:37:28.867Z,6.15
2022-11-25T15:40:33.229Z,5.72
2022-11-25T15:43:02.371Z,4.50
2022-11-25T15:45:42.603Z,6.30
2022-11-25T15:48:18.163Z,4.53
2022-11-25T15:50:44.740Z,4.13
2022-11-25T15:53:26.539Z,4.00
2022-11-25T15:56:00.869Z,4.45
2022-11-25T15:58:27.372Z,3.83
2022-11-25T16:01:15.692Z,3.80
2022-11-25T16:03:42.502Z,3.70
2022-11-25T16:06:28.728Z,3.92
2022-11-25T16:08:58.225Z,3.83
2022-11-25T16:11:26.099Z,4.63
2022-11-25T16:13:53.317Z,3.60
2022-11-25T16:16:28.447Z,3.50
2022-11-25T16:19:06.011Z,4.88
2022-11-25T16:21:35.341Z,5.05
2022-11-25T16:24:05.047Z,5.63
2022-11-25T16:26:34.010Z,6.27
2022-11-25T16:29:02.751Z,6.70
2022-11-25T16:31:29.310Z,19.98
2022-11-25T16:34:13.934Z,14.77
2022-11-25T16:36:40.569Z,16.02
2022-11-25T16:39:07.163Z,14.87
2022-11-25T16:41:35.096Z,10.40
2022-11-25T16:44:04.781Z,7.70
2022-11-25T16:46:34.230Z,8.20
2022-11-25T16:49:08.236Z,7.03
2022-11-25T16:51:35.265Z,8.23
2022-11-25T16:54:01.760Z,6.15
2022-11-25T16:56:28.819Z,7.50
2022-11-25T16:58:57.051Z,5.70
2022-11-25T17:01:27.254Z,6.53
2022-11-25T17:03:54.108Z,9.37
2022-11-25T17:06:23.278Z,7.25
2022-11-25T17:08:50.752Z,7.90
2022-11-25T17:11:20.060Z,6.80
2022-11-25T17:13:49.178Z,9.13
2022-11-25T17:16:19.785Z,9.23
2022-11-25T17:18:47.248Z,12.02
2022-11-25T17:21:15.233Z,6.70
2022-11-25T17:23:43.130Z,10.65
2022-11-25T17:26:19.737Z,11.35
2022-11-25T17:28:54.522Z,8.97
2022-11-25T17:31:23.453Z,10.65
2022-11-25T17:33:50.273Z,10.57
2022-11-25T17:36:16.778Z,10.20
2022-11-25T17:38:43.314Z,11.93
2022-11-25T17:41:21.698Z,12.93
2022-11-25T17:43:50.921Z,9.10
2022-11-25T17:46:18.280Z,11.90
2022-11-25T17:48:44.822Z,11.10
2022-11-25T17:51:12.836Z,15.70
2022-11-25T17:53:40.134Z,17.20
2022-11-25T17:56:23.493Z,13.65
2022-11-25T17:58:51.231Z,10.93
2022-11-25T18:01:17.842Z,10.32
2022-11-25T18:03:44.390Z,11.93
2022-11-25T18:06:11.067Z,11.83
2022-11-25T18:08:37.568Z,10.88
2022-11-25T18:11:06.743Z,10.52
2022-11-25T18:13:39.089Z,10.95
2022-11-25T18:16:08.729Z,9.60
2022-11-25T18:18:35.961Z,34.67
2022-11-25T18:21:02.610Z,17.27
2022-11-25T18:23:29.153Z,14.43
2022-11-25T18:25:58.608Z,11.60
2022-11-25T18:28:26.619Z,10.50
2022-11-25T18:30:55.720Z,7.83
2022-11-25T18:33:22.281Z,6.53
2022-11-25T18:35:48.706Z,6.80
2022-11-25T18:38:15.171Z,8.63
2022-11-25T18:40:45.585Z,8.25
2022-11-25T18:43:19.495Z,6.80
2022-11-25T18:45:46.658Z,5.88
2022-11-25T18:48:15.007Z,4.78
2022-11-25T18:50:42.408Z,5.78
2022-11-25T18:53:09.027Z,7.50
2022-11-25T18:55:35.777Z,7.00
2022-11-25T18:58:02.695Z,6.18
2022-11-25T19:00:33.506Z,9.32
2022-11-25T19:03:00.767Z,9.10
2022-11-25T19:05:33.106Z,10.02
2022-11-25T19:07:59.800Z,7.07
2022-11-25T19:10:30.691Z,6.50
2022-11-25T19:13:14.708Z,5.00
2022-11-25T19:15:42.972Z,6.32
2022-11-25T19:18:13.957Z,6.00
2022-11-25T19:20:40.434Z,5.43
2022-11-25T19:23:20.875Z,5.22
2022-11-25T19:25:47.516Z,10.15
2022-11-25T19:28:16.668Z,23.05
2022-11-25T19:30:44.126Z,17.15
2022-11-25T19:33:18.680Z,11.53
2022-11-25T19:35:45.165Z,8.82
2022-11-25T19:38:23.401Z,7.18
2022-11-25T19:40:49.977Z,6.40
2022-11-25T19:43:16.456Z,5.90
2022-11-25T19:45:44.601Z,5.10
2022-11-25T19:48:16.802Z,5.85
2022-11-25T19:50:45.525Z,6.63
2022-11-25T19:53:22.017Z,6.00
2022-11-25T19:55:49.012Z,5.65
2022-11-25T19:58:15.778Z,5.90
2022-11-25T20:00:43.962Z,6.57
2022-11-25T20:03:22.115Z,7.00
2022-11-25T20:05:50.420Z,6.93
2022-11-25T20:08:22.679Z,6.15
2022-11-25T20:10:49.354Z,7.10
2022-11-25T20:13:15.955Z,6.68
2022-11-25T20:15:44.222Z,6.97
2022-11-25T20:18:18.409Z,8.32
2022-11-25T20:20:47.480Z,9.35
2022-11-25T20:23:25.931Z,15.23
2022-11-25T20:25:52.628Z,13.27
2022-11-25T20:28:25.008Z,15.10
2022-11-25T20:30:52.715Z,11.43
2022-11-25T20:33:23.982Z,11.32
2022-11-25T20:35:55.860Z,12.43
2022-11-25T20:38:25.892Z,12.52
2022-11-25T20:40:54.940Z,13.25
2022-11-25T20:43:31.762Z,12.52
2022-11-25T20:46:00.165Z,14.90
2022-11-25T20:48:27.833Z,15.00
2022-11-25T20:50:55.759Z,15.27
2022-11-25T20:53:22.682Z,13.10
2022-11-25T20:55:49.664Z,13.50
2022-11-25T20:58:23.834Z,13.20
2022-11-25T21:00:56.858Z,13.50
2022-11-25T21:03:24.763Z,12.30
2022-11-25T21:05:52.646Z,12.90
2022-11-25T21:08:24.819Z,11.73
2022-11-25T21:10:57.881Z,13.10
2022-11-25T21:13:26.925Z,12.30
2022-11-25T21:15:53.855Z,12.70
2022-11-25T21:18:23.748Z,11.55
2022-11-25T21:20:52.763Z,12.10
2022-11-25T21:23:23.496Z,12.55
2022-11-25T21:25:50.488Z,11.40
2022-11-25T21:28:20.656Z,12.55
2022-11-25T21:30:47.970Z,12.35
2022-11-25T21:33:15.165Z,13.10
2022-11-25T21:35:44.163Z,12.48
2022-11-25T21:38:20.013Z,12.53
2022-11-25T21:40:49.892Z,13.23
2022-11-25T21:43:50.019Z,13.95
2022-11-25T21:46:22.024Z,12.55
2022-11-25T21:48:48.524Z,13.00
2022-11-25T21:51:16.622Z,13.97
2022-11-25T21:53:43.066Z,11.90
2022-11-25T21:56:38.866Z,12.73
2022-11-25T21:59:07.260Z,12.95
2022-11-25T22:01:33.890Z,12.98
2022-11-25T22:04:00.436Z,14.33
2022-11-25T22:06:29.076Z,14.40
2022-11-25T22:08:56.203Z,13.60
2022-11-25T22:11:37.701Z,15.95
2022-11-25T22:14:08.089Z,17.38
2022-11-25T22:16:35.401Z,16.13
2022-11-25T22:19:02.708Z,15.10
2022-11-25T22:21:29.201Z,16.70
2022-11-25T22:23:55.888Z,18.35
2022-11-25T22:26:34.137Z,16.60
2022-11-25T22:29:02.105Z,17.63
2022-11-25T22:31:29.227Z,15.95
2022-11-25T22:33:56.292Z,15.43
2022-11-25T22:36:35.836Z,15.73
2022-11-25T22:39:16.501Z,14.77
2022-11-25T22:41:50.492Z,14.83
2022-11-25T22:44:32.357Z,18.48
2022-11-25T22:46:59.222Z,16.38
2022-11-25T22:49:28.645Z,17.33
2022-11-25T22:51:56.260Z,16.67
2022-11-25T22:54:23.242Z,16.93
2022-11-25T22:56:49.781Z,15.90
2022-11-25T22:59:16.293Z,16.42
2022-11-25T23:01:43.026Z,16.48
2022-11-25T23:04:17.016Z,15.15
2022-11-25T23:06:43.754Z,15.80
2022-11-25T23:09:15.128Z,16.88
2022-11-25T23:11:41.693Z,16.80
2022-11-25T23:14:08.227Z,16.40
2022-11-25T23:16:35.126Z,17.48
2022-11-25T23:19:01.757Z,17.03
2022-11-25T23:21:28.341Z,16.88
2022-11-25T23:23:55.450Z,16.15
2022-11-25T23:26:22.381Z,15.80
2022-11-25T23:28:49.111Z,15.90
2022-11-25T23:31:16.769Z,16.17
2022-11-25T23:33:48.829Z,16.05
2022-11-25T23:36:23.417Z,16.42
2022-11-25T23:38:53.439Z,15.13
2022-11-25T23:41:25.435Z,15.57
2022-11-25T23:43:52.412Z,15.20
2022-11-25T23:46:22.805Z,15.57
2022-11-25T23:48:55.847Z,14.95
2022-11-25T23:51:23.795Z,14.90
2022-11-25T23:53:51.140Z,14.95
2022-11-25T23:56:18.111Z,15.90
2022-11-25T23:58:44.561Z,15.20
